Time;durP1;ratioP1;P1;durP2;ratioP2;P2;SDS_P1;SDS_P2;PMS_P1;PMS_P2;Temp;Humidity;BMP_temperature;BMP_pressure;BME280_temperature;BME280_humidity;BME280_pressure;Samples;Min_cycle;Max_cycle;Signal;HPM_P1;HPM_P2
2021/10/24 13:13:25;;;;;;;9.93;4.53;;;14.30;99.90;;;;;;14622155;22;20023;-79
2021/10/24 13:19:12;;;;;;;6.40;3.40;;;14.60;99.90;;;;;;14941457;22;20023;-79
2021/10/24 13:25:04;;;;;;;20.25;9.55;;;14.60;99.90;;;;;;14924298;22;20027;-84
2021/10/24 13:30:53;;;;;;;13.57;5.25;;;14.70;99.90;;;;;;14855780;22;20032;-81
2021/10/24 13:36:42;;;;;;;9.75;3.17;;;14.90;99.90;;;;;;14898029;22;20029;-83
2021/10/24 13:42:29;;;;;;;10.23;4.22;;;15.10;99.90;;;;;;14926942;22;20800;-82
2021/10/24 13:48:22;;;;;;;7.88;3.45;;;15.30;99.90;;;;;;14905857;22;20114;-83
2021/10/24 13:54:09;;;;;;;6.75;3.42;;;15.50;99.90;;;;;;14837045;22;20028;-83
2021/10/24 13:59:56;;;;;;;9.95;3.20;;;15.70;99.90;;;;;;14838258;22;20028;-82
2021/10/24 14:05:44;;;;;;;4.85;2.88;;;15.80;99.90;;;;;;14898349;22;20034;-81
2021/10/24 14:11:31;;;;;;;7.85;2.97;;;15.90;99.90;;;;;;14906059;22;20063;-82
2021/10/24 14:17:18;;;;;;;5.43;3.63;;;16.00;99.90;;;;;;14832846;22;20032;-82
2021/10/24 14:23:06;;;;;;;11.43;2.65;;;16.10;99.90;;;;;;14885752;22;20505;-81
2021/10/24 14:28:54;;;;;;;9.13;3.10;;;16.10;99.90;;;;;;14894283;22;20535;-82
2021/10/24 14:34:41;;;;;;;4.55;2.75;;;16.10;99.90;;;;;;14841549;22;20021;-81
2021/10/24 14:40:30;;;;;;;8.50;2.72;;;16.10;99.90;;;;;;14887315;22;20030;-82
2021/10/24 14:46:17;;;;;;;6.32;2.58;;;16.20;99.90;;;;;;14909829;22;20126;-82
2021/10/24 14:52:05;;;;;;;4.25;2.47;;;16.30;99.90;;;;;;14905988;22;20027;-81
2021/10/24 14:57:55;;;;;;;7.57;2.95;;;16.10;99.90;;;;;;14891110;22;20035;-83
2021/10/24 15:03:42;;;;;;;9.35;2.83;;;16.10;99.90;;;;;;14905479;22;20034;-81
2021/10/24 15:09:28;;;;;;;10.13;4.43;;;15.80;99.90;;;;;;14910966;22;20110;-81
2021/10/24 15:15:17;;;;;;;7.15;2.80;;;15.50;99.90;;;;;;14892577;22;20024;-82
2021/10/24 15:21:13;;;;;;;4.75;2.45;;;15.20;99.90;;;;;;14878288;22;20034;-82
2021/10/24 15:27:00;;;;;;;6.45;2.70;;;15.10;99.90;;;;;;14915451;22;20019;-81
2021/10/24 15:32:49;;;;;;;8.07;3.10;;;14.80;99.90;;;;;;14912243;22;20043;-81
2021/10/24 15:38:37;;;;;;;7.63;3.80;;;14.70;99.90;;;;;;14912280;22;20091;-81
2021/10/24 15:44:24;;;;;;;6.80;3.30;;;14.50;99.90;;;;;;14909099;22;20035;-81
2021/10/24 15:50:13;;;;;;;8.23;3.38;;;14.30;99.90;;;;;;14909923;22;20065;-76
2021/10/24 15:56:00;;;;;;;6.82;3.85;;;14.20;99.90;;;;;;14897386;22;20023;-77
2021/10/24 16:01:47;;;;;;;7.05;2.90;;;14.10;99.90;;;;;;14898880;22;20024;-77
2021/10/24 16:07:35;;;;;;;9.73;3.90;;;13.90;99.90;;;;;;14898549;22;20034;-81
2021/10/24 16:13:22;;;;;;;15.20;3.40;;;13.80;99.90;;;;;;14906253;22;20503;-81
2021/10/24 16:19:10;;;;;;;7.13;3.05;;;13.60;99.90;;;;;;14904132;22;20368;-79
2021/10/24 16:24:59;;;;;;;9.95;5.03;;;13.40;99.90;;;;;;14904418;22;20059;-78
2021/10/24 16:30:49;;;;;;;9.55;3.33;;;13.30;99.90;;;;;;14902611;22;20521;-79
2021/10/24 16:36:36;;;;;;;9.45;3.22;;;13.00;99.90;;;;;;14906586;22;20034;-80
2021/10/24 16:42:24;;;;;;;7.32;3.53;;;12.90;99.90;;;;;;14906256;22;20058;-80
2021/10/24 16:48:12;;;;;;;8.20;3.85;;;12.80;99.90;;;;;;14907038;22;20023;-80
2021/10/24 16:54:00;;;;;;;5.97;3.35;;;12.50;99.90;;;;;;14909289;22;20024;-78
2021/10/24 16:59:48;;;;;;;7.13;5.40;;;12.40;99.90;;;;;;14905982;22;20023;-79
2021/10/24 17:05:35;;;;;;;12.38;3.55;;;12.30;99.90;;;;;;14907109;22;20889;-78
2021/10/24 17:11:25;;;;;;;9.57;3.80;;;12.10;99.90;;;;;;14889354;22;20538;-78
2021/10/24 17:17:14;;;;;;;7.05;3.63;;;12.00;99.90;;;;;;14880588;22;20546;-78
2021/10/24 17:23:01;;;;;;;10.73;3.95;;;11.90;99.90;;;;;;14907852;22;20363;-79
